sensor_id;sensor_type;location;lat;lon;timestamp;P1;durP1;ratioP1;P2;durP2;ratioP2
21494;SDS011;10909;53.590;10.054;2023-06-10T00:01:35;4.38;;;2.33;;
21494;SDS011;10909;53.590;10.054;2023-06-10T00:04:01;4.85;;;2.35;;
21494;SDS011;10909;53.590;10.054;2023-06-10T00:06:27;4.63;;;2.42;;
21494;SDS011;10909;53.590;10.054;2023-06-10T00:08:53;5.53;;;2.42;;
21494;SDS011;10909;53.590;10.054;2023-06-10T00:11:25;2.63;;;2.38;;
21494;SDS011;10909;53.590;10.054;2023-06-10T00:13:51;3.65;;;2.58;;
21494;SDS011;10909;53.590;10.054;2023-06-10T00:16:17;4.25;;;2.58;;
21494;SDS011;10909;53.590;10.054;2023-06-10T00:18:43;3.13;;;2.25;;
21494;SDS011;10909;53.590;10.054;2023-06-10T00:21:10;5.93;;;2.30;;
21494;SDS011;10909;53.590;10.054;2023-06-10T00:23:38;3.33;;;2.28;;
21494;SDS011;10909;53.590;10.054;2023-06-10T00:26:04;3.42;;;2.42;;
21494;SDS011;10909;53.590;10.054;2023-06-10T00:28:30;4.30;;;2.35;;
21494;SDS011;10909;53.590;10.054;2023-06-10T00:30:55;3.40;;;2.28;;
21494;SDS011;10909;53.590;10.054;2023-06-10T00:33:22;3.55;;;2.15;;
21494;SDS011;10909;53.590;10.054;2023-06-10T00:35:48;3.60;;;2.20;;
21494;SDS011;10909;53.590;10.054;2023-06-10T00:38:16;5.25;;;2.65;;
21494;SDS011;10909;53.590;10.054;2023-06-10T00:40:41;2.55;;;2.00;;
21494;SDS011;10909;53.590;10.054;2023-06-10T00:43:07;3.97;;;2.03;;
21494;SDS011;10909;53.590;10.054;2023-06-10T00:45:33;2.83;;;2.00;;
21494;SDS011;10909;53.590;10.054;2023-06-10T00:47:59;4.40;;;2.30;;
21494;SDS011;10909;53.590;10.054;2023-06-10T00:50:26;2.00;;;1.65;;
21494;SDS011;10909;53.590;10.054;2023-06-10T00:52:52;4.28;;;2.20;;
21494;SDS011;10909;53.590;10.054;2023-06-10T00:55:19;4.72;;;2.38;;
21494;SDS011;10909;53.590;10.054;2023-06-10T00:57:45;3.95;;;2.10;;
21494;SDS011;10909;53.590;10.054;2023-06-10T01:00:13;2.83;;;2.17;;
21494;SDS011;10909;53.590;10.054;2023-06-10T01:02:40;2.53;;;2.03;;
21494;SDS011;10909;53.590;10.054;2023-06-10T01:05:06;2.72;;;1.92;;
21494;SDS011;10909;53.590;10.054;2023-06-10T01:07:43;3.53;;;2.40;;
21494;SDS011;10909;53.590;10.054;2023-06-10T01:10:25;4.25;;;2.08;;
21494;SDS011;10909;53.590;10.054;2023-06-10T01:13:01;2.67;;;2.20;;
21494;SDS011;10909;53.590;10.054;2023-06-10T01:15:31;3.42;;;2.15;;
21494;SDS011;10909;53.590;10.054;2023-06-10T01:20:27;3.58;;;2.20;;
21494;SDS011;10909;53.590;10.054;2023-06-10T01:22:54;2.85;;;2.03;;
21494;SDS011;10909;53.590;10.054;2023-06-10T01:25:23;3.42;;;2.10;;
21494;SDS011;10909;53.590;10.054;2023-06-10T01:28:05;3.65;;;2.10;;
21494;SDS011;10909;53.590;10.054;2023-06-10T01:33:14;3.35;;;1.80;;
21494;SDS011;10909;53.590;10.054;2023-06-10T01:35:43;3.38;;;2.05;;
21494;SDS011;10909;53.590;10.054;2023-06-10T01:38:12;3.92;;;1.60;;
21494;SDS011;10909;53.590;10.054;2023-06-10T01:40:39;2.92;;;2.00;;
21494;SDS011;10909;53.590;10.054;2023-06-10T01:43:06;2.97;;;2.00;;
21494;SDS011;10909;53.590;10.054;2023-06-10T01:45:31;3.38;;;2.10;;
21494;SDS011;10909;53.590;10.054;2023-06-10T01:47:57;4.93;;;2.15;;
21494;SDS011;10909;53.590;10.054;2023-06-10T01:50:22;2.13;;;1.70;;
21494;SDS011;10909;53.590;10.054;2023-06-10T01:52:48;3.85;;;1.98;;
21494;SDS011;10909;53.590;10.054;2023-06-10T01:55:14;2.58;;;2.10;;
21494;SDS011;10909;53.590;10.054;2023-06-10T01:57:39;2.42;;;1.73;;
21494;SDS011;10909;53.590;10.054;2023-06-10T02:00:05;3.45;;;1.90;;
21494;SDS011;10909;53.590;10.054;2023-06-10T02:02:32;3.40;;;2.00;;
21494;SDS011;10909;53.590;10.054;2023-06-10T02:04:58;3.07;;;1.67;;
21494;SDS011;10909;53.590;10.054;2023-06-10T02:07:24;2.03;;;1.60;;
21494;SDS011;10909;53.590;10.054;2023-06-10T02:09:49;3.47;;;1.63;;
21494;SDS011;10909;53.590;10.054;2023-06-10T02:12:15;2.85;;;1.85;;
21494;SDS011;10909;53.590;10.054;2023-06-10T02:14:41;2.78;;;1.60;;
21494;SDS011;10909;53.590;10.054;2023-06-10T02:17:07;5.97;;;1.98;;
21494;SDS011;10909;53.590;10.054;2023-06-10T02:19:37;4.40;;;1.80;;
21494;SDS011;10909;53.590;10.054;2023-06-10T02:22:07;3.05;;;1.77;;
21494;SDS011;10909;53.590;10.054;2023-06-10T02:24:35;2.63;;;1.53;;
21494;SDS011;10909;53.590;10.054;2023-06-10T02:27:03;3.20;;;1.48;;
21494;SDS011;10909;53.590;10.054;2023-06-10T02:29:31;2.97;;;1.73;;
21494;SDS011;10909;53.590;10.054;2023-06-10T02:31:58;3.37;;;1.50;;
21494;SDS011;10909;53.590;10.054;2023-06-10T02:34:24;2.72;;;1.77;;
21494;SDS011;10909;53.590;10.054;2023-06-10T02:36:50;2.58;;;1.80;;
21494;SDS011;10909;53.590;10.054;2023-06-10T02:39:16;6.07;;;1.60;;
21494;SDS011;10909;53.590;10.054;2023-06-10T02:41:42;2.45;;;1.42;;
21494;SDS011;10909;53.590;10.054;2023-06-10T02:44:07;5.82;;;1.77;;
21494;SDS011;10909;53.590;10.054;2023-06-10T02:46:33;2.67;;;1.73;;
21494;SDS011;10909;53.590;10.054;2023-06-10T02:48:58;2.58;;;1.88;;
21494;SDS011;10909;53.590;10.054;2023-06-10T02:51:24;2.10;;;1.50;;
21494;SDS011;10909;53.590;10.054;2023-06-10T02:53:50;2.03;;;1.67;;
21494;SDS011;10909;53.590;10.054;2023-06-10T02:56:16;3.15;;;1.50;;
21494;SDS011;10909;53.590;10.054;2023-06-10T02:58:42;2.45;;;1.40;;
21494;SDS011;10909;53.590;10.054;2023-06-10T03:01:08;3.80;;;1.70;;
21494;SDS011;10909;53.590;10.054;2023-06-10T03:03:35;2.53;;;1.70;;
21494;SDS011;10909;53.590;10.054;2023-06-10T03:06:02;2.22;;;1.40;;
21494;SDS011;10909;53.590;10.054;2023-06-10T03:08:28;2.83;;;1.80;;
21494;SDS011;10909;53.590;10.054;2023-06-10T03:10:54;2.70;;;1.57;;
21494;SDS011;10909;53.590;10.054;2023-06-10T03:13:19;2.38;;;1.50;;
21494;SDS011;10909;53.590;10.054;2023-06-10T03:15:46;4.45;;;1.48;;
21494;SDS011;10909;53.590;10.054;2023-06-10T03:18:11;2.80;;;1.70;;
21494;SDS011;10909;53.590;10.054;2023-06-10T03:20:37;1.90;;;1.40;;
21494;SDS011;10909;53.590;10.054;2023-06-10T03:23:04;3.10;;;1.73;;
21494;SDS011;10909;53.590;10.054;2023-06-10T03:25:34;2.90;;;1.60;;
21494;SDS011;10909;53.590;10.054;2023-06-10T03:28:00;2.22;;;1.40;;
21494;SDS011;10909;53.590;10.054;2023-06-10T03:30:27;2.93;;;1.60;;
21494;SDS011;10909;53.590;10.054;2023-06-10T03:32:53;2.53;;;1.40;;
21494;SDS011;10909;53.590;10.054;2023-06-10T03:35:18;3.17;;;1.50;;
21494;SDS011;10909;53.590;10.054;2023-06-10T03:37:44;3.80;;;1.83;;
21494;SDS011;10909;53.590;10.054;2023-06-10T03:40:10;3.38;;;1.48;;
21494;SDS011;10909;53.590;10.054;2023-06-10T03:42:36;2.65;;;1.58;;
21494;SDS011;10909;53.590;10.054;2023-06-10T03:45:02;2.27;;;1.43;;
21494;SDS011;10909;53.590;10.054;2023-06-10T03:47:35;2.67;;;1.45;;
21494;SDS011;10909;53.590;10.054;2023-06-10T03:50:05;1.52;;;1.38;;
21494;SDS011;10909;53.590;10.054;2023-06-10T03:52:31;2.87;;;1.57;;
21494;SDS011;10909;53.590;10.054;2023-06-10T03:54:56;3.33;;;1.73;;
21494;SDS011;10909;53.590;10.054;2023-06-10T03:57:22;3.67;;;1.70;;
21494;SDS011;10909;53.590;10.054;2023-06-10T03:59:48;3.30;;;1.70;;
21494;SDS011;10909;53.590;10.054;2023-06-10T04:02:14;2.08;;;1.38;;
21494;SDS011;10909;53.590;10.054;2023-06-10T04:04:39;3.28;;;1.63;;
21494;SDS011;10909;53.590;10.054;2023-06-10T04:07:06;2.08;;;1.15;;
21494;SDS011;10909;53.590;10.054;2023-06-10T04:09:33;2.15;;;1.40;;
21494;SDS011;10909;53.590;10.054;2023-06-10T04:11:59;3.03;;;1.58;;
21494;SDS011;10909;53.590;10.054;2023-06-10T04:14:24;2.72;;;1.65;;
21494;SDS011;10909;53.590;10.054;2023-06-10T04:16:50;3.15;;;1.40;;
21494;SDS011;10909;53.590;10.054;2023-06-10T04:19:16;2.38;;;1.50;;
21494;SDS011;10909;53.590;10.054;2023-06-10T04:21:42;2.75;;;1.45;;
21494;SDS011;10909;53.590;10.054;2023-06-10T04:24:07;2.03;;;1.50;;
21494;SDS011;10909;53.590;10.054;2023-06-10T04:26:34;2.60;;;1.50;;
21494;SDS011;10909;53.590;10.054;2023-06-10T04:29:01;4.32;;;1.55;;
21494;SDS011;10909;53.590;10.054;2023-06-10T04:31:26;3.60;;;1.55;;
21494;SDS011;10909;53.590;10.054;2023-06-10T04:33:52;3.85;;;1.73;;
21494;SDS011;10909;53.590;10.054;2023-06-10T04:36:18;4.25;;;1.70;;
21494;SDS011;10909;53.590;10.054;2023-06-10T04:38:44;2.13;;;1.52;;
21494;SDS011;10909;53.590;10.054;2023-06-10T04:41:10;3.72;;;1.30;;
21494;SDS011;10909;53.590;10.054;2023-06-10T04:43:36;2.60;;;1.50;;
21494;SDS011;10909;53.590;10.054;2023-06-10T04:46:02;1.77;;;1.33;;
21494;SDS011;10909;53.590;10.054;2023-06-10T04:48:27;2.50;;;1.20;;
21494;SDS011;10909;53.590;10.054;2023-06-10T04:50:53;3.00;;;1.20;;
21494;SDS011;10909;53.590;10.054;2023-06-10T04:53:18;2.03;;;1.40;;
21494;SDS011;10909;53.590;10.054;2023-06-10T04:55:45;2.95;;;1.40;;
21494;SDS011;10909;53.590;10.054;2023-06-10T04:58:11;2.85;;;1.70;;
21494;SDS011;10909;53.590;10.054;2023-06-10T05:00:37;3.28;;;1.52;;
21494;SDS011;10909;53.590;10.054;2023-06-10T05:03:03;3.30;;;1.75;;
21494;SDS011;10909;53.590;10.054;2023-06-10T05:05:31;4.35;;;1.65;;
21494;SDS011;10909;53.590;10.054;2023-06-10T05:07:57;3.70;;;1.35;;
21494;SDS011;10909;53.590;10.054;2023-06-10T05:10:23;5.13;;;1.65;;
21494;SDS011;10909;53.590;10.054;2023-06-10T05:12:48;3.63;;;1.65;;
21494;SDS011;10909;53.590;10.054;2023-06-10T05:15:14;3.58;;;1.30;;
21494;SDS011;10909;53.590;10.054;2023-06-10T05:17:40;3.00;;;1.30;;
21494;SDS011;10909;53.590;10.054;2023-06-10T05:20:05;2.47;;;1.50;;
21494;SDS011;10909;53.590;10.054;2023-06-10T05:22:31;2.65;;;1.55;;
21494;SDS011;10909;53.590;10.054;2023-06-10T05:24:57;1.73;;;1.40;;
21494;SDS011;10909;53.590;10.054;2023-06-10T05:27:23;4.28;;;1.48;;
21494;SDS011;10909;53.590;10.054;2023-06-10T05:29:49;3.40;;;1.48;;
21494;SDS011;10909;53.590;10.054;2023-06-10T05:32:16;2.80;;;1.75;;
21494;SDS011;10909;53.590;10.054;2023-06-10T05:34:42;3.10;;;1.50;;
21494;SDS011;10909;53.590;10.054;2023-06-10T05:37:08;3.85;;;1.77;;
21494;SDS011;10909;53.590;10.054;2023-06-10T05:39:35;3.03;;;1.50;;
21494;SDS011;10909;53.590;10.054;2023-06-10T05:42:05;2.60;;;1.30;;
21494;SDS011;10909;53.590;10.054;2023-06-10T05:44:31;4.03;;;1.67;;
21494;SDS011;10909;53.590;10.054;2023-06-10T05:46:57;3.30;;;1.35;;
21494;SDS011;10909;53.590;10.054;2023-06-10T05:49:23;3.40;;;1.60;;
21494;SDS011;10909;53.590;10.054;2023-06-10T05:51:49;2.95;;;1.60;;
21494;SDS011;10909;53.590;10.054;2023-06-10T05:54:15;4.05;;;1.85;;
21494;SDS011;10909;53.590;10.054;2023-06-10T05:56:40;4.55;;;1.60;;
21494;SDS011;10909;53.590;10.054;2023-06-10T05:59:06;2.50;;;1.38;;
21494;SDS011;10909;53.590;10.054;2023-06-10T06:01:32;3.08;;;1.80;;
21494;SDS011;10909;53.590;10.054;2023-06-10T06:03:57;3.25;;;1.70;;
21494;SDS011;10909;53.590;10.054;2023-06-10T06:06:23;1.88;;;1.40;;
21494;SDS011;10909;53.590;10.054;2023-06-10T06:08:49;2.63;;;1.60;;
21494;SDS011;10909;53.590;10.054;2023-06-10T06:11:14;2.08;;;1.35;;
21494;SDS011;10909;53.590;10.054;2023-06-10T06:13:40;4.32;;;1.42;;
21494;SDS011;10909;53.590;10.054;2023-06-10T06:16:07;2.83;;;1.35;;
21494;SDS011;10909;53.590;10.054;2023-06-10T06:18:32;4.32;;;1.60;;
21494;SDS011;10909;53.590;10.054;2023-06-10T06:20:59;2.63;;;1.50;;
21494;SDS011;10909;53.590;10.054;2023-06-10T06:23:25;2.70;;;1.67;;
21494;SDS011;10909;53.590;10.054;2023-06-10T06:25:50;3.22;;;1.83;;
21494;SDS011;10909;53.590;10.054;2023-06-10T06:28:16;5.35;;;1.65;;
21494;SDS011;10909;53.590;10.054;2023-06-10T06:30:44;3.90;;;1.75;;
21494;SDS011;10909;53.590;10.054;2023-06-10T06:33:10;2.92;;;1.83;;
21494;SDS011;10909;53.590;10.054;2023-06-10T06:35:35;4.03;;;1.95;;
21494;SDS011;10909;53.590;10.054;2023-06-10T06:38:03;2.13;;;1.40;;
21494;SDS011;10909;53.590;10.054;2023-06-10T06:40:29;2.88;;;1.50;;
21494;SDS011;10909;53.590;10.054;2023-06-10T06:42:55;3.65;;;1.70;;
21494;SDS011;10909;53.590;10.054;2023-06-10T06:45:21;2.92;;;1.60;;
21494;SDS011;10909;53.590;10.054;2023-06-10T06:47:46;3.58;;;1.70;;
21494;SDS011;10909;53.590;10.054;2023-06-10T06:50:12;3.50;;;1.58;;
21494;SDS011;10909;53.590;10.054;2023-06-10T06:52:38;3.50;;;1.70;;
21494;SDS011;10909;53.590;10.054;2023-06-10T06:55:04;3.97;;;1.63;;
21494;SDS011;10909;53.590;10.054;2023-06-10T06:57:30;2.13;;;1.50;;
21494;SDS011;10909;53.590;10.054;2023-06-10T06:59:57;5.20;;;1.75;;
21494;SDS011;10909;53.590;10.054;2023-06-10T07:02:22;3.65;;;1.75;;
21494;SDS011;10909;53.590;10.054;2023-06-10T07:04:48;2.47;;;1.52;;
21494;SDS011;10909;53.590;10.054;2023-06-10T07:07:14;2.90;;;1.67;;
21494;SDS011;10909;53.590;10.054;2023-06-10T07:09:40;2.83;;;1.73;;
21494;SDS011;10909;53.590;10.054;2023-06-10T07:12:06;3.58;;;1.50;;
21494;SDS011;10909;53.590;10.054;2023-06-10T07:14:32;2.97;;;1.50;;
21494;SDS011;10909;53.590;10.054;2023-06-10T07:16:58;1.75;;;1.60;;
21494;SDS011;10909;53.590;10.054;2023-06-10T07:19:24;2.78;;;1.70;;
21494;SDS011;10909;53.590;10.054;2023-06-10T07:21:49;2.85;;;1.73;;
21494;SDS011;10909;53.590;10.054;2023-06-10T07:24:15;3.75;;;1.70;;
21494;SDS011;10909;53.590;10.054;2023-06-10T07:26:40;3.75;;;1.58;;
21494;SDS011;10909;53.590;10.054;2023-06-10T07:29:06;3.35;;;1.65;;
21494;SDS011;10909;53.590;10.054;2023-06-10T07:31:32;2.92;;;1.80;;
21494;SDS011;10909;53.590;10.054;2023-06-10T07:33:58;2.35;;;1.50;;
21494;SDS011;10909;53.590;10.054;2023-06-10T07:36:24;4.35;;;1.83;;
21494;SDS011;10909;53.590;10.054;2023-06-10T07:38:52;2.35;;;1.60;;
21494;SDS011;10909;53.590;10.054;2023-06-10T07:41:18;4.00;;;1.48;;
21494;SDS011;10909;53.590;10.054;2023-06-10T07:43:44;2.58;;;1.50;;
21494;SDS011;10909;53.590;10.054;2023-06-10T07:46:10;2.80;;;1.60;;
21494;SDS011;10909;53.590;10.054;2023-06-10T07:48:35;2.60;;;1.58;;
21494;SDS011;10909;53.590;10.054;2023-06-10T07:51:02;3.22;;;1.73;;
21494;SDS011;10909;53.590;10.054;2023-06-10T07:53:28;2.13;;;1.70;;
21494;SDS011;10909;53.590;10.054;2023-06-10T07:55:53;1.65;;;1.40;;
21494;SDS011;10909;53.590;10.054;2023-06-10T07:58:19;4.32;;;2.00;;
21494;SDS011;10909;53.590;10.054;2023-06-10T08:00:45;2.83;;;1.50;;
21494;SDS011;10909;53.590;10.054;2023-06-10T08:03:11;3.33;;;1.70;;
21494;SDS011;10909;53.590;10.054;2023-06-10T08:05:36;3.60;;;1.83;;
21494;SDS011;10909;53.590;10.054;2023-06-10T08:08:05;5.47;;;1.80;;
21494;SDS011;10909;53.590;10.054;2023-06-10T08:10:32;2.90;;;1.73;;
21494;SDS011;10909;53.590;10.054;2023-06-10T08:12:58;2.90;;;1.77;;
21494;SDS011;10909;53.590;10.054;2023-06-10T08:15:23;3.08;;;1.58;;
21494;SDS011;10909;53.590;10.054;2023-06-10T08:17:49;3.00;;;1.80;;
21494;SDS011;10909;53.590;10.054;2023-06-10T08:20:15;4.30;;;1.90;;
21494;SDS011;10909;53.590;10.054;2023-06-10T08:22:41;2.63;;;1.70;;
21494;SDS011;10909;53.590;10.054;2023-06-10T08:25:07;1.92;;;1.73;;
21494;SDS011;10909;53.590;10.054;2023-06-10T08:27:33;2.67;;;1.67;;
21494;SDS011;10909;53.590;10.054;2023-06-10T08:29:59;4.75;;;2.00;;
21494;SDS011;10909;53.590;10.054;2023-06-10T08:32:25;4.00;;;2.50;;
21494;SDS011;10909;53.590;10.054;2023-06-10T08:34:51;3.00;;;1.70;;
21494;SDS011;10909;53.590;10.054;2023-06-10T08:37:17;4.72;;;1.88;;
21494;SDS011;10909;53.590;10.054;2023-06-10T08:39:42;3.03;;;1.70;;
21494;SDS011;10909;53.590;10.054;2023-06-10T08:44:55;3.55;;;1.90;;
21494;SDS011;10909;53.590;10.054;2023-06-10T08:47:24;3.97;;;1.80;;
21494;SDS011;10909;53.590;10.054;2023-06-10T08:49:51;2.72;;;1.80;;
21494;SDS011;10909;53.590;10.054;2023-06-10T08:52:19;4.18;;;1.60;;
21494;SDS011;10909;53.590;10.054;2023-06-10T08:54:51;1.90;;;1.45;;
21494;SDS011;10909;53.590;10.054;2023-06-10T08:57:21;2.83;;;1.88;;
21494;SDS011;10909;53.590;10.054;2023-06-10T08:59:48;2.90;;;1.95;;
21494;SDS011;10909;53.590;10.054;2023-06-10T09:02:15;2.28;;;1.83;;
21494;SDS011;10909;53.590;10.054;2023-06-10T09:04:44;3.22;;;1.60;;
21494;SDS011;10909;53.590;10.054;2023-06-10T09:07:15;1.95;;;1.73;;
21494;SDS011;10909;53.590;10.054;2023-06-10T09:09:44;3.17;;;1.85;;
21494;SDS011;10909;53.590;10.054;2023-06-10T09:12:11;4.13;;;1.98;;
21494;SDS011;10909;53.590;10.054;2023-06-10T09:14:38;2.28;;;1.70;;
21494;SDS011;10909;53.590;10.054;2023-06-10T09:17:04;3.00;;;2.05;;
21494;SDS011;10909;53.590;10.054;2023-06-10T09:19:30;5.10;;;2.28;;
21494;SDS011;10909;53.590;10.054;2023-06-10T09:21:57;4.13;;;2.10;;
21494;SDS011;10909;53.590;10.054;2023-06-10T09:24:24;3.90;;;1.95;;
21494;SDS011;10909;53.590;10.054;2023-06-10T09:26:50;3.25;;;2.17;;
21494;SDS011;10909;53.590;10.054;2023-06-10T09:29:27;3.03;;;1.67;;
21494;SDS011;10909;53.590;10.054;2023-06-10T09:31:52;2.47;;;1.90;;
21494;SDS011;10909;53.590;10.054;2023-06-10T09:34:18;3.20;;;2.08;;
21494;SDS011;10909;53.590;10.054;2023-06-10T09:36:45;3.05;;;2.17;;
21494;SDS011;10909;53.590;10.054;2023-06-10T09:39:15;5.18;;;2.33;;
21494;SDS011;10909;53.590;10.054;2023-06-10T09:41:43;4.30;;;2.45;;
21494;SDS011;10909;53.590;10.054;2023-06-10T09:44:14;3.75;;;2.10;;
21494;SDS011;10909;53.590;10.054;2023-06-10T09:46:45;4.00;;;2.10;;
21494;SDS011;10909;53.590;10.054;2023-06-10T09:49:12;3.13;;;2.13;;
21494;SDS011;10909;53.590;10.054;2023-06-10T09:51:48;3.03;;;2.10;;
21494;SDS011;10909;53.590;10.054;2023-06-10T09:54:15;3.20;;;2.17;;
21494;SDS011;10909;53.590;10.054;2023-06-10T09:56:41;2.53;;;2.20;;
21494;SDS011;10909;53.590;10.054;2023-06-10T09:59:07;2.83;;;2.10;;
21494;SDS011;10909;53.590;10.054;2023-06-10T10:01:33;3.90;;;2.15;;
21494;SDS011;10909;53.590;10.054;2023-06-10T10:03:59;3.70;;;2.15;;
21494;SDS011;10909;53.590;10.054;2023-06-10T10:06:30;3.70;;;2.33;;
21494;SDS011;10909;53.590;10.054;2023-06-10T10:08:56;2.13;;;1.90;;
21494;SDS011;10909;53.590;10.054;2023-06-10T10:11:22;4.28;;;2.35;;
21494;SDS011;10909;53.590;10.054;2023-06-10T10:13:52;2.65;;;2.10;;
21494;SDS011;10909;53.590;10.054;2023-06-10T10:19:16;2.85;;;2.20;;
21494;SDS011;10909;53.590;10.054;2023-06-10T10:22:06;2.30;;;1.90;;
21494;SDS011;10909;53.590;10.054;2023-06-10T10:24:36;3.92;;;2.28;;
21494;SDS011;10909;53.590;10.054;2023-06-10T10:27:11;4.07;;;1.90;;
21494;SDS011;10909;53.590;10.054;2023-06-10T10:29:43;4.22;;;2.50;;
21494;SDS011;10909;53.590;10.054;2023-06-10T10:32:13;3.35;;;2.13;;
21494;SDS011;10909;53.590;10.054;2023-06-10T10:34:56;5.30;;;2.65;;
21494;SDS011;10909;53.590;10.054;2023-06-10T10:37:32;3.58;;;2.53;;
21494;SDS011;10909;53.590;10.054;2023-06-10T10:39:59;3.17;;;2.33;;
21494;SDS011;10909;53.590;10.054;2023-06-10T10:42:28;3.63;;;2.25;;
21494;SDS011;10909;53.590;10.054;2023-06-10T10:44:54;5.20;;;2.60;;
21494;SDS011;10909;53.590;10.054;2023-06-10T10:47:21;5.07;;;2.42;;
21494;SDS011;10909;53.590;10.054;2023-06-10T10:49:49;3.22;;;2.80;;
21494;SDS011;10909;53.590;10.054;2023-06-10T10:52:16;3.28;;;2.13;;
21494;SDS011;10909;53.590;10.054;2023-06-10T10:54:45;3.42;;;2.40;;
21494;SDS011;10909;53.590;10.054;2023-06-10T11:02:10;3.15;;;2.17;;
21494;SDS011;10909;53.590;10.054;2023-06-10T11:04:44;3.45;;;2.22;;
21494;SDS011;10909;53.590;10.054;2023-06-10T11:07:11;4.13;;;2.42;;
21494;SDS011;10909;53.590;10.054;2023-06-10T11:09:40;4.50;;;2.33;;
21494;SDS011;10909;53.590;10.054;2023-06-10T11:15:11;2.95;;;2.25;;
21494;SDS011;10909;53.590;10.054;2023-06-10T11:17:37;4.72;;;2.40;;
21494;SDS011;10909;53.590;10.054;2023-06-10T11:20:45;2.85;;;2.30;;
21494;SDS011;10909;53.590;10.054;2023-06-10T11:31:18;4.35;;;2.90;;
21494;SDS011;10909;53.590;10.054;2023-06-10T11:33:55;3.22;;;2.72;;
21494;SDS011;10909;53.590;10.054;2023-06-10T11:36:29;3.03;;;2.50;;
21494;SDS011;10909;53.590;10.054;2023-06-10T11:39:00;3.70;;;2.60;;
21494;SDS011;10909;53.590;10.054;2023-06-10T11:41:29;3.25;;;2.63;;
21494;SDS011;10909;53.590;10.054;2023-06-10T11:43:56;3.28;;;2.50;;
21494;SDS011;10909;53.590;10.054;2023-06-10T11:46:29;3.17;;;2.63;;
21494;SDS011;10909;53.590;10.054;2023-06-10T11:48:58;3.80;;;2.80;;
21494;SDS011;10909;53.590;10.054;2023-06-10T11:51:25;3.60;;;2.53;;
21494;SDS011;10909;53.590;10.054;2023-06-10T11:53:53;3.95;;;3.15;;
21494;SDS011;10909;53.590;10.054;2023-06-10T11:56:23;3.65;;;2.50;;
21494;SDS011;10909;53.590;10.054;2023-06-10T11:58:54;3.78;;;2.92;;
21494;SDS011;10909;53.590;10.054;2023-06-10T12:01:20;4.38;;;2.85;;
21494;SDS011;10909;53.590;10.054;2023-06-10T12:03:47;3.78;;;2.63;;
21494;SDS011;10909;53.590;10.054;2023-06-10T12:06:21;3.35;;;2.97;;
21494;SDS011;10909;53.590;10.054;2023-06-10T12:08:46;4.10;;;2.85;;
21494;SDS011;10909;53.590;10.054;2023-06-10T12:11:12;4.30;;;3.47;;
21494;SDS011;10909;53.590;10.054;2023-06-10T12:13:38;4.35;;;3.00;;
21494;SDS011;10909;53.590;10.054;2023-06-10T12:16:14;2.90;;;2.42;;
21494;SDS011;10909;53.590;10.054;2023-06-10T12:18:42;4.32;;;2.90;;
21494;SDS011;10909;53.590;10.054;2023-06-10T12:21:16;3.45;;;2.70;;
21494;SDS011;10909;53.590;10.054;2023-06-10T12:29:23;3.78;;;2.58;;
21494;SDS011;10909;53.590;10.054;2023-06-10T12:31:57;3.05;;;2.58;;
21494;SDS011;10909;53.590;10.054;2023-06-10T12:34:31;4.45;;;2.90;;
21494;SDS011;10909;53.590;10.054;2023-06-10T12:36:59;2.83;;;2.58;;
21494;SDS011;10909;53.590;10.054;2023-06-10T12:39:29;3.75;;;2.92;;
21494;SDS011;10909;53.590;10.054;2023-06-10T12:41:56;3.55;;;2.47;;
21494;SDS011;10909;53.590;10.054;2023-06-10T12:44:28;6.45;;;2.67;;
21494;SDS011;10909;53.590;10.054;2023-06-10T12:46:55;3.35;;;2.92;;
21494;SDS011;10909;53.590;10.054;2023-06-10T12:49:21;3.95;;;2.75;;
21494;SDS011;10909;53.590;10.054;2023-06-10T12:51:47;3.20;;;2.63;;
21494;SDS011;10909;53.590;10.054;2023-06-10T12:54:13;3.58;;;2.70;;
21494;SDS011;10909;53.590;10.054;2023-06-10T12:56:39;4.10;;;2.47;;
21494;SDS011;10909;53.590;10.054;2023-06-10T12:59:04;2.58;;;2.28;;
21494;SDS011;10909;53.590;10.054;2023-06-10T13:01:30;3.03;;;2.58;;
21494;SDS011;10909;53.590;10.054;2023-06-10T13:03:57;2.67;;;2.45;;
21494;SDS011;10909;53.590;10.054;2023-06-10T13:06:23;3.58;;;2.65;;
21494;SDS011;10909;53.590;10.054;2023-06-10T13:08:49;3.88;;;2.75;;
21494;SDS011;10909;53.590;10.054;2023-06-10T13:11:15;3.55;;;2.85;;
21494;SDS011;10909;53.590;10.054;2023-06-10T13:13:41;2.75;;;2.50;;
21494;SDS011;10909;53.590;10.054;2023-06-10T13:16:07;2.45;;;2.10;;
21494;SDS011;10909;53.590;10.054;2023-06-10T13:18:33;2.58;;;2.20;;
21494;SDS011;10909;53.590;10.054;2023-06-10T13:21:05;3.85;;;2.30;;
21494;SDS011;10909;53.590;10.054;2023-06-10T13:23:30;5.03;;;2.65;;
21494;SDS011;10909;53.590;10.054;2023-06-10T13:25:56;3.72;;;2.50;;
21494;SDS011;10909;53.590;10.054;2023-06-10T13:28:22;3.55;;;2.38;;
21494;SDS011;10909;53.590;10.054;2023-06-10T13:30:51;4.10;;;2.58;;
21494;SDS011;10909;53.590;10.054;2023-06-10T13:33:16;2.10;;;1.90;;
21494;SDS011;10909;53.590;10.054;2023-06-10T13:35:42;3.28;;;2.47;;
21494;SDS011;10909;53.590;10.054;2023-06-10T13:38:08;3.50;;;2.40;;
21494;SDS011;10909;53.590;10.054;2023-06-10T13:40:33;3.85;;;2.38;;
21494;SDS011;10909;53.590;10.054;2023-06-10T13:42:59;4.05;;;2.22;;
21494;SDS011;10909;53.590;10.054;2023-06-10T13:45:27;2.70;;;2.30;;
21494;SDS011;10909;53.590;10.054;2023-06-10T13:47:53;3.33;;;2.50;;
21494;SDS011;10909;53.590;10.054;2023-06-10T13:50:18;3.35;;;2.58;;
21494;SDS011;10909;53.590;10.054;2023-06-10T13:52:44;3.35;;;2.38;;
21494;SDS011;10909;53.590;10.054;2023-06-10T13:55:10;3.25;;;2.20;;
21494;SDS011;10909;53.590;10.054;2023-06-10T13:57:36;3.38;;;2.50;;
21494;SDS011;10909;53.590;10.054;2023-06-10T14:00:03;3.55;;;2.05;;
21494;SDS011;10909;53.590;10.054;2023-06-10T14:02:30;4.80;;;2.53;;
21494;SDS011;10909;53.590;10.054;2023-06-10T14:04:56;5.45;;;2.58;;
21494;SDS011;10909;53.590;10.054;2023-06-10T14:07:21;3.63;;;2.30;;
21494;SDS011;10909;53.590;10.054;2023-06-10T14:09:47;2.53;;;1.98;;
21494;SDS011;10909;53.590;10.054;2023-06-10T14:12:13;4.38;;;2.28;;
21494;SDS011;10909;53.590;10.054;2023-06-10T14:14:38;4.78;;;2.08;;
21494;SDS011;10909;53.590;10.054;2023-06-10T14:17:05;4.00;;;2.55;;
21494;SDS011;10909;53.590;10.054;2023-06-10T14:19:30;3.80;;;2.47;;
21494;SDS011;10909;53.590;10.054;2023-06-10T14:21:56;4.13;;;2.20;;
21494;SDS011;10909;53.590;10.054;2023-06-10T14:24:22;4.28;;;2.30;;
21494;SDS011;10909;53.590;10.054;2023-06-10T14:26:47;3.60;;;2.33;;
21494;SDS011;10909;53.590;10.054;2023-06-10T14:29:13;3.97;;;2.20;;
21494;SDS011;10909;53.590;10.054;2023-06-10T14:31:39;3.75;;;2.45;;
21494;SDS011;10909;53.590;10.054;2023-06-10T14:34:05;3.55;;;2.22;;
21494;SDS011;10909;53.590;10.054;2023-06-10T14:36:33;5.22;;;2.60;;
21494;SDS011;10909;53.590;10.054;2023-06-10T14:38:58;5.40;;;2.30;;
21494;SDS011;10909;53.590;10.054;2023-06-10T14:41:24;3.83;;;2.33;;
21494;SDS011;10909;53.590;10.054;2023-06-10T14:43:51;3.03;;;2.13;;
21494;SDS011;10909;53.590;10.054;2023-06-10T14:46:16;2.83;;;2.30;;
21494;SDS011;10909;53.590;10.054;2023-06-10T14:48:42;3.50;;;2.47;;
21494;SDS011;10909;53.590;10.054;2023-06-10T14:51:08;3.05;;;2.38;;
21494;SDS011;10909;53.590;10.054;2023-06-10T14:53:34;3.05;;;2.13;;
21494;SDS011;10909;53.590;10.054;2023-06-10T14:56:00;3.22;;;2.22;;
21494;SDS011;10909;53.590;10.054;2023-06-10T14:58:28;3.13;;;2.22;;
21494;SDS011;10909;53.590;10.054;2023-06-10T15:00:53;3.95;;;2.40;;
21494;SDS011;10909;53.590;10.054;2023-06-10T15:03:19;3.65;;;2.22;;
21494;SDS011;10909;53.590;10.054;2023-06-10T15:05:45;2.53;;;2.20;;